createdAt,value
2017-05-25T00:01:53.790Z,14.20
2017-05-25T00:04:23.615Z,14.13
2017-05-25T00:06:53.459Z,14.06
2017-05-25T00:09:23.286Z,14.07
2017-05-25T00:11:52.614Z,13.95
2017-05-25T00:14:22.443Z,13.97
2017-05-25T00:16:52.270Z,13.96
2017-05-25T00:19:22.136Z,13.97
2017-05-25T00:21:51.959Z,13.96
2017-05-25T00:24:21.844Z,13.91
2017-05-25T00:26:51.703Z,13.84
2017-05-25T00:29:21.582Z,13.84
2017-05-25T00:31:51.401Z,13.85
2017-05-25T00:34:21.449Z,13.80
2017-05-25T00:36:51.267Z,13.83
2017-05-25T00:39:21.105Z,13.82
2017-05-25T00:41:50.955Z,13.80
2017-05-25T00:44:20.784Z,13.78
2017-05-25T00:46:50.653Z,13.71
2017-05-25T00:49:20.471Z,13.70
2017-05-25T00:51:50.299Z,13.76
2017-05-25T00:54:20.150Z,13.82
2017-05-25T00:56:49.970Z,13.71
2017-05-25T00:59:19.842Z,13.69
2017-05-25T01:01:49.702Z,13.70
2017-05-25T01:04:19.538Z,13.67
2017-05-25T01:06:49.399Z,13.59
2017-05-25T01:09:19.211Z,13.58
2017-05-25T01:11:49.160Z,13.53
2017-05-25T01:14:18.973Z,13.64
2017-05-25T01:16:48.860Z,13.60
2017-05-25T01:19:18.698Z,13.44
2017-05-25T01:21:48.142Z,13.47
2017-05-25T01:24:18.016Z,13.35
2017-05-25T01:26:47.863Z,13.36
2017-05-25T01:29:17.691Z,13.32
2017-05-25T01:31:47.538Z,13.41
2017-05-25T01:34:17.370Z,13.38
2017-05-25T01:36:47.267Z,13.31
2017-05-25T01:39:17.090Z,13.31
2017-05-25T01:41:46.539Z,13.37
2017-05-25T01:44:16.016Z,13.36
2017-05-25T01:46:45.457Z,13.37
2017-05-25T01:49:15.312Z,13.34
2017-05-25T01:51:45.222Z,13.33
2017-05-25T01:54:15.066Z,13.27
2017-05-25T01:56:44.911Z,13.31
2017-05-25T01:59:14.733Z,13.31
2017-05-25T02:01:44.613Z,13.21
2017-05-25T02:04:14.451Z,13.22
2017-05-25T02:06:44.283Z,13.13
2017-05-25T02:09:14.126Z,13.16
2017-05-25T02:11:43.947Z,13.24
2017-05-25T02:14:13.814Z,13.23
2017-05-25T02:16:43.641Z,13.30
2017-05-25T02:19:13.461Z,13.30
2017-05-25T02:21:43.323Z,13.35
2017-05-25T02:24:13.149Z,13.40
2017-05-25T02:26:43.012Z,13.43
2017-05-25T02:29:12.835Z,13.52
2017-05-25T02:31:42.662Z,13.54
2017-05-25T02:34:12.561Z,13.56
2017-05-25T02:36:42.391Z,13.55
2017-05-25T02:39:12.279Z,13.58
2017-05-25T02:41:42.107Z,13.64
2017-05-25T02:44:11.938Z,13.63
2017-05-25T02:46:41.789Z,13.73
2017-05-25T02:49:11.751Z,13.75
2017-05-25T02:51:41.620Z,13.74
2017-05-25T02:54:11.443Z,13.79
2017-05-25T02:56:41.263Z,13.77
2017-05-25T02:59:11.107Z,13.75
2017-05-25T03:01:40.927Z,13.79
2017-05-25T03:04:10.777Z,13.83
2017-05-25T03:06:40.610Z,13.86
2017-05-25T03:09:10.436Z,13.81
2017-05-25T03:11:40.290Z,13.86
2017-05-25T03:14:10.113Z,13.83
2017-05-25T03:16:40.002Z,13.83
2017-05-25T03:19:09.827Z,13.92
2017-05-25T03:21:39.656Z,13.86
2017-05-25T03:24:09.522Z,13.89
2017-05-25T03:26:39.347Z,13.97
2017-05-25T03:29:09.215Z,13.95
2017-05-25T03:31:39.058Z,13.89
2017-05-25T03:34:08.888Z,13.96
2017-05-25T03:36:38.733Z,13.91
2017-05-25T03:39:08.584Z,13.90
2017-05-25T03:41:38.439Z,13.93
2017-05-25T03:44:08.269Z,13.91
2017-05-25T03:46:38.087Z,13.94
2017-05-25T03:49:07.931Z,14.00
2017-05-25T03:51:37.755Z,14.00
2017-05-25T03:54:07.633Z,13.96
2017-05-25T03:56:37.470Z,13.98
2017-05-25T03:59:07.294Z,14.03
2017-05-25T04:01:37.153Z,14.11
2017-05-25T04:04:06.983Z,14.16
2017-05-25T04:06:36.849Z,14.20
2017-05-25T04:09:06.671Z,14.26
2017-05-25T04:11:36.545Z,14.30
2017-05-25T04:14:06.403Z,14.26
2017-05-25T04:16:36.431Z,14.30
2017-05-25T04:19:06.306Z,14.32
2017-05-25T04:21:36.137Z,14.36
2017-05-25T04:24:05.983Z,14.37
2017-05-25T04:26:35.842Z,14.41
2017-05-25T04:29:05.667Z,14.42
2017-05-25T04:31:35.539Z,14.48
2017-05-25T04:34:05.358Z,14.47
2017-05-25T04:36:35.191Z,14.53
2017-05-25T04:39:04.131Z,14.46
2017-05-25T04:41:33.946Z,14.48
2017-05-25T04:44:03.850Z,14.45
2017-05-25T04:46:33.785Z,14.50
2017-05-25T04:49:03.611Z,14.54
2017-05-25T04:51:33.459Z,14.58
2017-05-25T04:54:03.279Z,14.60
2017-05-25T04:56:33.158Z,14.61
2017-05-25T04:59:03.245Z,14.66
2017-05-25T05:01:33.118Z,14.65
2017-05-25T05:04:02.928Z,14.63
2017-05-25T05:06:32.823Z,14.72
2017-05-25T05:09:02.648Z,14.70
2017-05-25T05:11:32.469Z,14.71
2017-05-25T05:14:02.354Z,14.72
2017-05-25T05:16:32.184Z,14.73
2017-05-25T05:19:02.078Z,14.79
2017-05-25T05:21:31.931Z,14.77
2017-05-25T05:24:01.770Z,14.84
2017-05-25T05:26:31.623Z,14.89
2017-05-25T05:29:01.523Z,14.91
2017-05-25T05:31:31.410Z,15.01
2017-05-25T05:34:01.238Z,15.10
2017-05-25T05:36:31.063Z,15.11
2017-05-25T05:39:01.024Z,15.11
2017-05-25T05:41:30.842Z,15.15
2017-05-25T05:44:00.707Z,15.16
2017-05-25T05:46:30.527Z,15.18
2017-05-25T05:49:00.495Z,15.21
2017-05-25T05:51:30.330Z,15.27
2017-05-25T05:54:00.197Z,15.31
2017-05-25T05:56:30.049Z,15.38
2017-05-25T05:58:59.895Z,15.40
2017-05-25T06:01:29.778Z,15.39
2017-05-25T06:03:59.705Z,15.41
2017-05-25T06:06:29.537Z,15.49
2017-05-25T06:08:59.415Z,15.56
2017-05-25T06:11:29.260Z,15.67
2017-05-25T06:13:59.144Z,15.82
2017-05-25T06:16:29.030Z,15.79
2017-05-25T06:18:58.861Z,15.83
2017-05-25T06:21:28.729Z,15.89
2017-05-25T06:23:58.559Z,15.81
2017-05-25T06:26:28.433Z,15.74
2017-05-25T06:28:58.250Z,15.76
2017-05-25T06:31:28.095Z,15.73
2017-05-25T06:33:57.949Z,15.80
2017-05-25T06:36:27.841Z,15.84
2017-05-25T06:38:57.727Z,15.77
2017-05-25T06:41:27.354Z,15.83
2017-05-25T06:43:57.270Z,15.81
2017-05-25T06:46:27.127Z,15.95
2017-05-25T06:48:56.939Z,15.97
2017-05-25T06:51:26.811Z,16.13
2017-05-25T06:53:56.643Z,16.25
2017-05-25T06:56:26.524Z,16.32
2017-05-25T06:58:56.343Z,16.29
2017-05-25T07:01:26.175Z,16.34
2017-05-25T07:03:56.025Z,16.32
2017-05-25T07:06:25.855Z,16.27
2017-05-25T07:08:55.732Z,16.17
2017-05-25T07:11:25.554Z,16.21
2017-05-25T07:13:55.428Z,15.98
2017-05-25T07:16:25.242Z,16.03
2017-05-25T07:18:55.094Z,16.32
2017-05-25T07:21:25.003Z,16.50
2017-05-25T07:23:54.844Z,16.58
2017-05-25T07:26:24.713Z,16.66
2017-05-25T07:28:54.530Z,16.48
2017-05-25T07:31:24.386Z,16.43
2017-05-25T07:33:54.235Z,16.49
2017-05-25T07:36:24.059Z,16.66
2017-05-25T07:38:53.936Z,16.87
2017-05-25T07:41:23.757Z,16.84
2017-05-25T07:43:53.581Z,17.09
2017-05-25T07:46:23.427Z,17.09
2017-05-25T07:48:53.238Z,17.03
2017-05-25T07:51:23.126Z,16.76
2017-05-25T07:53:53.046Z,16.69
2017-05-25T07:56:22.875Z,17.02
2017-05-25T07:58:52.731Z,17.47
2017-05-25T08:01:22.560Z,17.75
2017-05-25T08:03:52.446Z,17.79
2017-05-25T08:06:22.262Z,17.69
2017-05-25T08:08:52.078Z,17.53
2017-05-25T08:11:21.938Z,17.19
2017-05-25T08:13:51.760Z,16.94
2017-05-25T08:18:58.256Z,16.72
2017-05-25T08:21:28.082Z,16.72
2017-05-25T08:23:57.957Z,17.11
2017-05-25T08:26:27.763Z,17.23
2017-05-25T08:28:57.583Z,17.48
2017-05-25T08:31:27.428Z,17.77
2017-05-25T08:33:57.242Z,18.17
2017-05-25T08:36:27.119Z,18.24
2017-05-25T08:38:56.929Z,17.96
2017-05-25T08:41:26.741Z,17.77
2017-05-25T08:43:56.589Z,17.71
2017-05-25T08:46:26.411Z,18.03
2017-05-25T08:48:56.285Z,18.18
2017-05-25T08:51:26.124Z,18.36
2017-05-25T08:53:55.938Z,18.29
2017-05-25T08:56:25.793Z,18.20
2017-05-25T08:58:55.614Z,18.30
2017-05-25T09:01:25.482Z,18.63
2017-05-25T09:03:55.304Z,18.69
2017-05-25T09:06:25.115Z,18.65
2017-05-25T09:08:54.955Z,18.52
2017-05-25T09:11:24.766Z,18.21
2017-05-25T09:13:54.702Z,18.00
2017-05-25T09:16:24.548Z,17.88
2017-05-25T09:18:54.974Z,17.91
2017-05-25T09:21:24.827Z,18.06
2017-05-25T09:23:54.642Z,18.29
2017-05-25T09:26:24.508Z,18.30
2017-05-25T09:28:54.326Z,18.54
2017-05-25T09:31:24.147Z,18.39
2017-05-25T09:33:53.989Z,18.35
2017-05-25T09:36:23.809Z,18.61
2017-05-25T09:38:53.690Z,18.99
2017-05-25T09:41:23.512Z,18.99
2017-05-25T09:43:53.331Z,18.90
2017-05-25T09:46:23.215Z,18.78
2017-05-25T09:48:53.040Z,18.72
2017-05-25T09:51:22.903Z,18.37
2017-05-25T09:53:52.720Z,18.02
2017-05-25T09:56:22.547Z,17.97
2017-05-25T09:58:52.396Z,18.08
2017-05-25T10:01:22.229Z,18.00
2017-05-25T10:03:52.073Z,17.93
2017-05-25T10:06:21.887Z,17.95
2017-05-25T10:08:51.704Z,18.05
2017-05-25T10:11:21.533Z,18.21
2017-05-25T10:13:51.392Z,18.22
2017-05-25T10:16:21.263Z,18.18
2017-05-25T10:18:51.075Z,18.07
2017-05-25T10:21:20.890Z,17.85
2017-05-25T10:23:50.735Z,17.90
2017-05-25T10:26:20.554Z,18.16
2017-05-25T10:28:50.410Z,18.52
2017-05-25T10:31:20.221Z,18.56
2017-05-25T10:33:50.081Z,18.72
2017-05-25T10:36:19.893Z,19.05
2017-05-25T10:38:49.711Z,19.31
2017-05-25T10:41:19.565Z,19.38
2017-05-25T10:43:49.388Z,19.29
2017-05-25T10:46:19.251Z,19.40
2017-05-25T10:48:49.058Z,19.53
2017-05-25T10:51:18.870Z,19.65
2017-05-25T10:53:48.706Z,19.74
2017-05-25T10:56:18.538Z,19.71
2017-05-25T10:58:48.444Z,19.54
2017-05-25T11:01:18.222Z,19.36
2017-05-25T11:03:48.095Z,19.35
2017-05-25T11:06:17.718Z,19.17
2017-05-25T11:08:47.546Z,19.00
2017-05-25T11:11:17.378Z,18.90
2017-05-25T11:13:47.192Z,18.88
2017-05-25T11:16:17.071Z,18.89
2017-05-25T11:18:46.891Z,18.97
2017-05-25T11:21:16.723Z,19.03
2017-05-25T11:23:46.575Z,19.17
2017-05-25T11:26:16.386Z,19.26
2017-05-25T11:28:46.261Z,19.41
2017-05-25T11:31:16.079Z,19.04
2017-05-25T11:33:45.899Z,18.80
2017-05-25T11:36:15.743Z,18.97
2017-05-25T11:38:45.558Z,19.01
2017-05-25T11:41:15.435Z,18.94
2017-05-25T11:43:45.254Z,18.92
2017-05-25T11:46:15.075Z,18.99
2017-05-25T11:48:44.932Z,19.00
2017-05-25T11:51:14.745Z,19.06
2017-05-25T11:53:44.606Z,19.19
2017-05-25T11:56:14.434Z,19.02
2017-05-25T11:58:44.250Z,18.87
2017-05-25T12:01:14.098Z,18.94
2017-05-25T12:03:43.931Z,19.10
2017-05-25T12:06:13.814Z,19.03
2017-05-25T12:08:43.634Z,19.20
2017-05-25T12:11:13.462Z,19.24
2017-05-25T12:13:43.376Z,19.23
2017-05-25T12:16:13.202Z,19.31
2017-05-25T12:18:43.083Z,19.35
2017-05-25T12:21:12.906Z,19.32
2017-05-25T12:23:42.727Z,19.50
2017-05-25T12:26:12.571Z,19.53
2017-05-25T12:28:42.478Z,19.47
2017-05-25T12:31:12.362Z,19.44
2017-05-25T12:33:42.184Z,19.51
2017-05-25T12:36:12.017Z,19.36
2017-05-25T12:38:41.869Z,19.35
2017-05-25T12:41:11.699Z,19.38
2017-05-25T12:43:41.578Z,19.43
2017-05-25T12:46:11.403Z,19.45
2017-05-25T12:48:41.235Z,19.10
2017-05-25T12:51:11.085Z,19.04
2017-05-25T12:53:40.915Z,19.11
2017-05-25T12:56:10.789Z,19.24
2017-05-25T12:58:40.622Z,19.38
2017-05-25T13:01:10.459Z,19.46
2017-05-25T13:03:41.018Z,19.36
2017-05-25T13:06:10.851Z,19.27
2017-05-25T13:08:40.722Z,19.30
2017-05-25T13:11:10.538Z,19.35
2017-05-25T13:13:40.423Z,19.22
2017-05-25T13:16:10.246Z,19.10
2017-05-25T13:18:40.079Z,19.02
2017-05-25T13:21:09.925Z,19.13
2017-05-25T13:23:39.770Z,19.17
2017-05-25T13:26:09.266Z,19.18
2017-05-25T13:28:39.086Z,19.26
2017-05-25T13:31:08.942Z,19.44
2017-05-25T13:33:38.807Z,19.44
2017-05-25T13:36:08.630Z,19.34
2017-05-25T13:38:38.491Z,19.28
2017-05-25T13:41:08.343Z,19.26
2017-05-25T13:43:38.203Z,19.25
2017-05-25T13:46:08.038Z,19.21
2017-05-25T13:48:37.873Z,19.25
2017-05-25T13:51:07.729Z,19.27
2017-05-25T13:53:37.565Z,19.23
2017-05-25T13:56:07.431Z,19.36
2017-05-25T13:58:37.267Z,19.27
2017-05-25T14:01:07.094Z,19.19
2017-05-25T14:03:36.950Z,19.25
2017-05-25T14:06:06.810Z,19.27
2017-05-25T14:08:36.674Z,19.40
2017-05-25T14:11:06.498Z,19.41
2017-05-25T14:13:36.339Z,19.43
2017-05-25T14:16:06.282Z,19.30
2017-05-25T14:18:36.108Z,19.23
2017-05-25T14:21:05.981Z,19.24
2017-05-25T14:23:35.805Z,19.24
2017-05-25T14:26:05.634Z,19.28
2017-05-25T14:28:35.491Z,19.28
2017-05-25T14:31:05.327Z,19.34
2017-05-25T14:33:35.234Z,19.26
2017-05-25T14:36:05.067Z,19.23
2017-05-25T14:38:34.988Z,19.25
2017-05-25T14:41:04.855Z,19.35
2017-05-25T14:43:34.688Z,19.35
2017-05-25T14:46:04.542Z,19.24
2017-05-25T14:48:34.369Z,19.35
2017-05-25T14:51:04.199Z,19.42
2017-05-25T14:53:34.047Z,19.40
2017-05-25T14:56:03.867Z,19.23
2017-05-25T14:58:33.724Z,19.16
2017-05-25T15:01:03.546Z,19.19
2017-05-25T15:03:33.389Z,19.19
2017-05-25T15:06:03.201Z,19.24
2017-05-25T15:08:33.024Z,19.28
2017-05-25T15:11:02.892Z,19.25
2017-05-25T15:13:32.705Z,19.26
2017-05-25T15:16:02.546Z,19.22
2017-05-25T15:18:32.358Z,19.18
2017-05-25T15:21:02.180Z,19.07
2017-05-25T15:23:32.048Z,19.14
2017-05-25T15:26:01.878Z,19.14
2017-05-25T15:28:31.736Z,19.23
2017-05-25T15:31:01.587Z,19.33
2017-05-25T15:33:31.397Z,19.48
2017-05-25T15:36:01.315Z,19.60
2017-05-25T15:38:31.146Z,19.63
2017-05-25T15:41:01.106Z,19.55
2017-05-25T15:43:30.915Z,19.45
2017-05-25T15:46:00.847Z,19.39
2017-05-25T15:48:30.687Z,19.47
2017-05-25T15:51:00.506Z,19.54
2017-05-25T15:53:30.387Z,19.61
2017-05-25T15:56:00.224Z,19.65
2017-05-25T15:58:30.096Z,19.63
2017-05-25T16:00:59.963Z,19.66
2017-05-25T16:03:29.798Z,19.70
2017-05-25T16:05:59.648Z,19.72
2017-05-25T16:08:29.471Z,19.56
2017-05-25T16:10:59.281Z,19.45
2017-05-25T16:13:29.113Z,19.31
2017-05-25T16:15:58.926Z,19.19
2017-05-25T16:18:28.789Z,19.19
2017-05-25T16:20:58.607Z,19.17
2017-05-25T16:23:28.463Z,19.11
2017-05-25T16:25:58.274Z,19.06
2017-05-25T16:28:28.096Z,19.09
2017-05-25T16:30:57.937Z,19.07
2017-05-25T16:33:27.756Z,19.10
2017-05-25T16:35:57.630Z,19.14
2017-05-25T16:38:27.462Z,19.17
2017-05-25T16:40:57.273Z,19.23
2017-05-25T16:43:27.128Z,19.24
2017-05-25T16:45:56.566Z,19.19
2017-05-25T16:48:26.399Z,19.29
2017-05-25T16:50:56.209Z,19.32
2017-05-25T16:53:26.062Z,19.38
2017-05-25T16:55:55.880Z,19.36
2017-05-25T16:58:25.699Z,19.39
2017-05-25T17:00:55.539Z,19.27
2017-05-25T17:03:25.359Z,19.26
2017-05-25T17:05:55.222Z,19.31
2017-05-25T17:08:25.040Z,19.34
2017-05-25T17:10:54.882Z,19.36
2017-05-25T17:13:24.717Z,19.38
2017-05-25T17:15:54.547Z,19.42
2017-05-25T17:18:24.390Z,19.44
2017-05-25T17:20:54.203Z,19.38
2017-05-25T17:23:24.052Z,19.39
2017-05-25T17:25:53.883Z,19.40
2017-05-25T17:28:23.703Z,19.44
2017-05-25T17:30:53.547Z,19.40
2017-05-25T17:33:23.366Z,19.42
2017-05-25T17:35:53.266Z,19.40
2017-05-25T17:38:23.091Z,19.34
2017-05-25T17:40:52.941Z,19.28
2017-05-25T17:43:22.793Z,19.26
2017-05-25T17:45:52.613Z,19.23
2017-05-25T17:48:22.483Z,19.18
2017-05-25T17:50:52.302Z,19.18
2017-05-25T17:53:22.118Z,19.18
2017-05-25T17:55:51.962Z,19.07
2017-05-25T17:58:21.774Z,19.06
2017-05-25T18:00:51.627Z,19.04
2017-05-25T18:03:21.455Z,19.08
2017-05-25T18:05:51.318Z,19.09
2017-05-25T18:08:21.139Z,18.98
2017-05-25T18:10:50.999Z,19.02
2017-05-25T18:13:20.842Z,19.02
2017-05-25T18:15:50.677Z,19.04
2017-05-25T18:18:20.528Z,19.05
2017-05-25T18:20:50.342Z,19.04
2017-05-25T18:23:20.159Z,19.01
2017-05-25T18:25:50.005Z,18.95
2017-05-25T18:28:19.839Z,18.90
2017-05-25T18:30:49.686Z,18.89
2017-05-25T18:33:19.506Z,18.92
2017-05-25T18:35:49.314Z,18.94
2017-05-25T18:38:19.151Z,18.87
2017-05-25T18:40:48.974Z,18.88
2017-05-25T18:43:18.629Z,18.83
2017-05-25T18:45:48.459Z,18.85
2017-05-25T18:48:18.282Z,18.79
2017-05-25T18:50:48.135Z,18.77
2017-05-25T18:53:17.946Z,18.74
2017-05-25T18:55:47.806Z,18.73
2017-05-25T18:58:17.618Z,18.70
2017-05-25T19:00:47.435Z,18.67
2017-05-25T19:03:17.278Z,18.66
2017-05-25T19:05:47.099Z,18.64
2017-05-25T19:08:16.961Z,18.61
2017-05-25T19:10:46.774Z,18.57
2017-05-25T19:13:16.614Z,18.51
2017-05-25T19:15:46.435Z,18.48
2017-05-25T19:18:16.256Z,18.44
2017-05-25T19:20:46.100Z,18.43
2017-05-25T19:23:15.915Z,18.44
2017-05-25T19:25:45.778Z,18.41
2017-05-25T19:28:15.596Z,18.35
2017-05-25T19:30:45.409Z,18.40
2017-05-25T19:33:15.247Z,18.38
2017-05-25T19:35:45.062Z,18.35
2017-05-25T19:38:14.923Z,18.27
2017-05-25T19:40:44.738Z,18.27
2017-05-25T19:43:14.602Z,18.17
2017-05-25T19:45:44.444Z,18.14
2017-05-25T19:48:14.303Z,18.05
2017-05-25T19:50:44.132Z,18.00
2017-05-25T19:53:13.957Z,18.04
2017-05-25T19:55:43.802Z,18.02
2017-05-25T19:58:13.617Z,17.92
2017-05-25T20:00:43.482Z,17.84
2017-05-25T20:03:13.307Z,17.81
2017-05-25T20:05:43.122Z,17.82
2017-05-25T20:08:12.973Z,17.89
2017-05-25T20:10:42.798Z,17.82
2017-05-25T20:13:12.651Z,17.73
2017-05-25T20:15:42.473Z,17.68
2017-05-25T20:18:12.343Z,17.73
2017-05-25T20:20:42.170Z,17.70
2017-05-25T20:23:12.004Z,17.62
2017-05-25T20:25:41.847Z,17.64
2017-05-25T20:28:11.667Z,17.60
2017-05-25T20:30:41.514Z,17.44
2017-05-25T20:33:11.331Z,17.45
2017-05-25T20:35:41.167Z,17.40
2017-05-25T20:38:11.009Z,17.42
2017-05-25T20:40:40.822Z,17.43
2017-05-25T20:43:10.756Z,17.40
2017-05-25T20:45:40.567Z,17.42
2017-05-25T20:48:10.379Z,17.36
2017-05-25T20:50:40.222Z,17.32
2017-05-25T20:53:10.052Z,17.28
2017-05-25T20:55:39.914Z,17.27
2017-05-25T20:58:09.735Z,17.27
2017-05-25T21:00:39.563Z,17.23
2017-05-25T21:03:09.409Z,17.23
2017-05-25T21:05:39.218Z,17.13
2017-05-25T21:08:09.064Z,17.14
2017-05-25T21:10:38.885Z,17.14
2017-05-25T21:13:08.703Z,17.18
2017-05-25T21:15:38.538Z,17.15
2017-05-25T21:18:08.351Z,17.17
2017-05-25T21:20:38.207Z,17.12
2017-05-25T21:23:08.027Z,17.13
2017-05-25T21:25:37.903Z,17.15
2017-05-25T21:28:07.743Z,17.16
2017-05-25T21:30:37.553Z,17.16
2017-05-25T21:33:07.407Z,17.17
2017-05-25T21:35:37.222Z,17.08
2017-05-25T21:38:07.066Z,17.12
2017-05-25T21:40:36.904Z,17.07
2017-05-25T21:43:06.733Z,17.06
2017-05-25T21:45:36.593Z,17.03
2017-05-25T21:48:06.410Z,17.07
2017-05-25T21:50:36.242Z,17.03
2017-05-25T21:53:06.089Z,17.02
2017-05-25T21:55:35.909Z,17.03
2017-05-25T21:58:05.770Z,16.98
2017-05-25T22:00:35.586Z,17.00
2017-05-25T22:03:05.400Z,17.03
2017-05-25T22:05:35.245Z,16.97
2017-05-25T22:08:05.063Z,16.98
2017-05-25T22:10:34.919Z,16.95
2017-05-25T22:13:04.739Z,16.87
2017-05-25T22:15:34.563Z,16.91
2017-05-25T22:18:04.419Z,16.91
2017-05-25T22:20:34.249Z,16.90
2017-05-25T22:23:04.106Z,16.92
2017-05-25T22:25:33.937Z,16.86
2017-05-25T22:28:03.782Z,16.83
2017-05-25T22:30:33.667Z,16.81
2017-05-25T22:33:03.495Z,16.84
2017-05-25T22:35:33.349Z,16.84
2017-05-25T22:38:03.171Z,16.78
2017-05-25T22:40:32.998Z,16.75
2017-05-25T22:43:02.873Z,16.74
2017-05-25T22:45:32.693Z,16.73
2017-05-25T22:48:02.559Z,16.70
2017-05-25T22:50:32.380Z,16.68
2017-05-25T22:53:02.218Z,16.62
2017-05-25T22:55:32.088Z,16.67
2017-05-25T22:58:01.938Z,16.64
2017-05-25T23:00:31.793Z,16.61
2017-05-25T23:03:01.686Z,16.56
2017-05-25T23:05:31.522Z,16.61
2017-05-25T23:08:01.467Z,16.61
2017-05-25T23:10:31.327Z,16.57
2017-05-25T23:13:01.338Z,16.50
2017-05-25T23:15:31.154Z,16.54
2017-05-25T23:18:00.998Z,16.49
2017-05-25T23:20:30.894Z,16.44
2017-05-25T23:23:00.799Z,16.49
2017-05-25T23:25:30.647Z,16.48
2017-05-25T23:28:00.469Z,16.44
2017-05-25T23:30:30.298Z,16.34
2017-05-25T23:33:00.154Z,16.39
2017-05-25T23:35:29.998Z,16.37
2017-05-25T23:37:59.877Z,16.34
2017-05-25T23:40:29.699Z,16.37
2017-05-25T23:42:59.513Z,16.35
2017-05-25T23:45:29.441Z,16.24
2017-05-25T23:47:59.287Z,16.30
2017-05-25T23:50:29.141Z,16.30
2017-05-25T23:52:58.965Z,16.30
2017-05-25T23:55:28.802Z,16.27
2017-05-25T23:57:58.653Z,16.30
